Time;durP1;ratioP1;P1;durP2;ratioP2;P2;SDS_P1;SDS_P2;PMS_P1;PMS_P2;Temp;Humidity;BMP_temperature;BMP_pressure;BME280_temperature;BME280_humidity;BME280_pressure;Samples;Min_cycle;Max_cycle;Signal;HPM_P1;HPM_P2
2024/03/19 00:00:24;;;;;;;26.25;15.63;;;;;;;-146.25;100.00;52477.69;2056213;28;20047;-63
2024/03/19 00:01:24;;;;;;;29.02;15.88;;;;;;;-146.25;100.00;52473.63;2064377;28;20066;-63
2024/03/19 00:02:25;;;;;;;24.17;16.38;;;;;;;-146.25;100.00;52479.72;2064036;28;20050;-63
2024/03/19 00:03:29;;;;;;;23.77;15.25;;;;;;;-146.25;100.00;52508.09;2072319;28;20038;-64
2024/03/19 00:04:30;;;;;;;25.25;15.25;;;;;;;-146.25;100.00;52506.06;2072178;28;20168;-62
2024/03/19 00:05:31;;;;;;;26.38;15.68;;;;;;;-146.25;100.00;52481.75;2072348;28;20441;-63
2024/03/19 00:06:32;;;;;;;24.70;14.90;;;;;;;-146.25;100.00;52493.91;2072330;28;20057;-63
2024/03/19 00:07:33;;;;;;;26.38;16.10;;;;;;;-146.25;100.00;52489.84;2071946;28;20039;-62
2024/03/19 00:08:33;;;;;;;26.33;15.23;;;;;;;-146.25;100.00;52481.75;2064190;28;20043;-63
2024/03/19 00:09:34;;;;;;;23.63;15.10;;;;;;;-146.25;100.00;52441.19;2056016;28;20039;-63
2024/03/19 00:10:35;;;;;;;21.98;14.75;;;;;;;-146.25;100.00;52514.19;2072295;28;20117;-63
2024/03/19 00:11:36;;;;;;;25.13;14.88;;;;;;;-146.25;100.00;52479.72;2072147;28;20042;-63
2024/03/19 00:12:37;;;;;;;22.92;15.77;;;;;;;-146.25;100.00;52465.53;2064515;28;20097;-63
2024/03/19 00:13:38;;;;;;;20.13;14.35;;;;;;;-146.25;100.00;52473.63;2063895;28;20913;-63
2024/03/19 00:14:39;;;;;;;24.67;15.45;;;;;;;-146.25;100.00;52495.94;2064787;28;20042;-65
2024/03/19 00:15:42;;;;;;;24.45;14.73;;;;;;;-146.25;100.00;52477.69;2072214;28;20045;-63
2024/03/19 00:16:45;;;;;;;25.35;15.02;;;;;;;-146.25;100.00;52485.81;2071999;28;20039;-63
2024/03/19 00:17:46;;;;;;;22.08;14.45;;;;;;;-146.25;100.00;52443.22;2072211;28;20038;-64
2024/03/19 00:18:47;;;;;;;26.60;15.18;;;;;;;-146.25;100.00;52461.47;2072269;28;20444;-62
2024/03/19 00:19:48;;;;;;;24.10;14.05;;;;;;;-146.25;100.00;52497.97;2063501;28;20433;-64
2024/03/19 00:20:49;;;;;;;26.08;15.23;;;;;;;-146.25;100.00;52455.38;2064194;28;20043;-64
2024/03/19 00:21:52;;;;;;;21.85;14.27;;;;;;;-146.25;100.00;52475.66;2064174;28;20082;-63
2024/03/19 00:22:53;;;;;;;24.20;15.55;;;;;;;-146.25;100.00;52512.16;2063411;28;20031;-63
2024/03/19 00:23:53;;;;;;;21.27;14.40;;;;;;;-146.25;100.00;52502.03;2071799;28;20452;-64
2024/03/19 00:24:57;;;;;;;24.52;14.73;;;;;;;-146.25;100.00;52441.19;2072450;28;20047;-65
2024/03/19 00:25:58;;;;;;;22.15;14.90;;;;;;;-146.25;100.00;52504.03;2064053;28;20042;-64
2024/03/19 00:26:58;;;;;;;20.85;14.10;;;;;;;-146.25;100.00;52465.53;2056304;28;20099;-63
2024/03/19 00:27:59;;;;;;;23.90;15.25;;;;;;;-146.25;100.00;52471.59;2056052;28;20495;-63
2024/03/19 00:29:03;;;;;;;24.65;14.77;;;;;;;-146.25;100.00;52520.28;2072337;28;20046;-62
2024/03/19 00:30:08;;;;;;;24.35;15.07;;;;;;;-146.25;100.00;52469.56;2072156;28;20034;-64
2024/03/19 00:31:10;;;;;;;20.33;14.52;;;;;;;-146.25;100.00;52475.66;2064302;28;20081;-64
2024/03/19 00:32:11;;;;;;;22.02;14.13;;;;;;;-146.25;100.00;52485.81;2064732;28;20035;-63
2024/03/19 00:33:13;;;;;;;20.83;14.30;;;;;;;-146.25;100.00;52455.38;2063945;28;20043;-63
2024/03/19 00:34:13;;;;;;;24.50;15.13;;;;;;;-146.25;100.00;52465.53;2056119;28;20035;-63
2024/03/19 00:35:14;;;;;;;25.45;15.52;;;;;;;-146.25;100.00;52469.56;2048516;28;20051;-63
2024/03/19 00:36:17;;;;;;;20.45;14.88;;;;;;;-146.25;100.00;52457.41;2055798;28;20043;-62
2024/03/19 00:37:18;;;;;;;22.40;13.85;;;;;;;-146.25;100.00;52453.34;2063639;28;20051;-64
2024/03/19 00:38:19;;;;;;;22.83;15.35;;;;;;;-146.25;100.00;52469.56;2072264;28;20081;-64
2024/03/19 00:39:22;;;;;;;22.27;14.50;;;;;;;-146.25;100.00;52457.41;2072827;28;20141;-64
2024/03/19 00:40:22;;;;;;;21.38;14.30;;;;;;;-146.25;100.00;52485.81;2072492;28;20039;-64
2024/03/19 00:41:23;;;;;;;21.20;14.82;;;;;;;-146.25;100.00;52493.91;2071085;28;20058;-64
2024/03/19 00:42:24;;;;;;;20.70;13.82;;;;;;;-146.25;100.00;52477.69;2071813;28;20050;-64
2024/03/19 00:43:29;;;;;;;21.88;14.70;;;;;;;-146.25;100.00;52500.00;2072042;28;20049;-64
2024/03/19 00:44:30;;;;;;;21.10;13.60;;;;;;;-146.25;100.00;52522.28;2072784;28;20038;-64
2024/03/19 00:45:31;;;;;;;21.40;15.15;;;;;;;-146.25;100.00;52435.09;2071920;28;20125;-64
2024/03/19 00:46:32;;;;;;;23.55;14.50;;;;;;;-146.25;100.00;52471.59;2071986;28;20054;-64
2024/03/19 00:47:34;;;;;;;24.10;14.25;;;;;;;-146.25;100.00;52473.63;2072062;28;20042;-64
2024/03/19 00:48:35;;;;;;;19.23;14.38;;;;;;;-146.25;100.00;52453.34;2072326;28;20101;-63
2024/03/19 00:49:38;;;;;;;22.65;14.35;;;;;;;-146.25;100.00;52463.50;2071987;28;20117;-64
2024/03/19 00:50:38;;;;;;;20.00;14.95;;;;;;;-146.25;100.00;52469.56;2080213;28;20069;-64
2024/03/19 00:51:39;;;;;;;23.60;15.65;;;;;;;-146.25;100.00;52475.66;2080356;28;20053;-63
2024/03/19 00:52:40;;;;;;;23.30;13.90;;;;;;;-146.25;100.00;52463.50;2080325;28;20045;-62
2024/03/19 00:53:41;;;;;;;22.25;14.95;;;;;;;-146.25;100.00;52471.59;2071966;28;20054;-63
2024/03/19 00:54:43;;;;;;;23.35;15.30;;;;;;;-146.25;100.00;52500.00;2079855;28;20045;-62
2024/03/19 00:55:44;;;;;;;24.92;14.77;;;;;;;-146.25;100.00;52459.44;2080391;28;20038;-63
2024/03/19 00:56:45;;;;;;;20.38;14.30;;;;;;;-146.25;100.00;52477.69;2080612;28;20117;-63
2024/03/19 00:57:47;;;;;;;21.95;13.90;;;;;;;-146.25;100.00;52506.06;2071905;28;20069;-63
2024/03/19 00:58:51;;;;;;;22.40;14.88;;;;;;;-146.25;100.00;52473.63;2072780;28;20038;-64
2024/03/19 00:59:52;;;;;;;22.42;14.70;;;;;;;-146.25;100.00;52473.63;2080150;28;20037;-63
2024/03/19 01:00:53;;;;;;;20.55;14.57;;;;;;;-146.25;100.00;52471.59;2079975;28;20116;-66
2024/03/19 01:01:54;;;;;;;19.98;13.38;;;;;;;-146.25;100.00;52459.44;2080544;28;20511;-62
2024/03/19 01:02:56;;;;;;;23.30;14.80;;;;;;;-146.25;100.00;52465.53;2071876;28;20031;-64
2024/03/19 01:04:01;;;;;;;27.20;15.93;;;;;;;-146.25;100.00;52493.91;2079860;28;20117;-63
2024/03/19 01:05:02;;;;;;;23.63;15.07;;;;;;;-146.25;100.00;52449.31;2071998;28;20034;-63
2024/03/19 01:06:03;;;;;;;23.17;15.70;;;;;;;-146.25;100.00;52471.59;2072176;28;20050;-65
2024/03/19 01:07:04;;;;;;;18.77;14.88;;;;;;;-146.25;100.00;52514.19;2071956;28;20043;-62
2024/03/19 01:08:07;;;;;;;22.42;14.23;;;;;;;-146.25;100.00;52471.59;2071799;28;20053;-63
2024/03/19 01:09:18;;;;;;;24.13;16.15;;;;;;;-146.25;100.00;52518.25;2079774;28;20080;-63
2024/03/19 01:10:19;;;;;;;19.67;13.93;;;;;;;-146.25;100.00;52451.31;2073383;28;20034;-63
2024/03/19 01:11:19;;;;;;;21.35;14.55;;;;;;;-146.25;100.00;52479.72;2071883;28;20425;-62
2024/03/19 01:12:20;;;;;;;24.60;14.82;;;;;;;-146.25;100.00;52475.66;2072168;28;20121;-63
2024/03/19 01:13:21;;;;;;;20.17;13.85;;;;;;;-146.25;100.00;52485.81;2071607;28;20046;-64
2024/03/19 01:14:22;;;;;;;22.30;14.40;;;;;;;-146.25;100.00;52504.03;2072028;28;20632;-64
2024/03/19 01:15:24;;;;;;;22.75;14.73;;;;;;;-146.25;100.00;52475.66;2071885;28;20050;-63
2024/03/19 01:16:25;;;;;;;25.75;16.27;;;;;;;-146.25;100.00;52504.03;2080182;28;20049;-63
2024/03/19 01:17:26;;;;;;;22.80;15.80;;;;;;;-146.25;100.00;52485.81;2071664;28;20156;-63
2024/03/19 01:18:27;;;;;;;26.48;15.30;;;;;;;-146.25;100.00;52477.69;2072401;28;20109;-63
2024/03/19 01:19:30;;;;;;;24.55;16.05;;;;;;;-146.25;100.00;52467.56;2071353;28;20038;-63
2024/03/19 01:20:35;;;;;;;23.13;15.85;;;;;;;-146.25;100.00;52477.69;2072436;28;20899;-64
2024/03/19 01:21:38;;;;;;;27.20;15.70;;;;;;;-146.25;100.00;52500.00;2079684;28;20042;-62
2024/03/19 01:22:39;;;;;;;26.75;15.60;;;;;;;-146.25;100.00;52493.91;2072369;28;20907;-63
2024/03/19 01:23:40;;;;;;;21.48;16.10;;;;;;;-146.25;100.00;52481.75;2071857;28;20101;-62
2024/03/19 01:24:41;;;;;;;22.10;15.23;;;;;;;-146.25;100.00;52473.63;2071622;28;20453;-63
2024/03/19 01:25:42;;;;;;;23.95;15.98;;;;;;;-146.25;100.00;52502.03;2071823;28;20043;-63
2024/03/19 01:26:43;;;;;;;23.30;15.52;;;;;;;-146.25;100.00;52489.84;2079740;28;20538;-63
2024/03/19 01:27:45;;;;;;;22.00;15.50;;;;;;;-146.25;100.00;52493.91;2080022;28;20815;-62
2024/03/19 01:28:49;;;;;;;21.77;15.95;;;;;;;-146.25;100.00;52524.31;2080307;28;20790;-64
2024/03/19 01:29:50;;;;;;;21.95;16.10;;;;;;;-146.25;100.00;52471.59;2071472;28;20047;-64
2024/03/19 01:30:51;;;;;;;23.40;15.63;;;;;;;-146.25;100.00;52481.75;2072240;28;20493;-63
2024/03/19 01:31:52;;;;;;;22.77;14.98;;;;;;;-146.25;100.00;52457.41;2071705;28;20105;-63
2024/03/19 01:32:53;;;;;;;22.00;14.60;;;;;;;-146.25;100.00;52534.47;2079913;28;20508;-63
2024/03/19 01:33:57;;;;;;;21.90;15.50;;;;;;;-146.25;100.00;52461.47;2080040;28;20084;-63
2024/03/19 01:34:58;;;;;;;22.88;15.35;;;;;;;-146.25;100.00;52465.53;2072181;28;20047;-62
2024/03/19 01:35:59;;;;;;;22.13;15.30;;;;;;;-146.25;100.00;52467.56;2071453;28;20039;-63
2024/03/19 01:37:00;;;;;;;24.92;15.80;;;;;;;-146.25;100.00;52512.16;2071911;28;20413;-63
2024/03/19 01:38:00;;;;;;;22.77;15.88;;;;;;;-146.25;100.00;52485.81;2071786;28;20043;-63
2024/03/19 01:39:01;;;;;;;24.90;15.48;;;;;;;-146.25;100.00;52477.69;2071448;28;20121;-63
2024/03/19 01:40:07;;;;;;;29.33;16.17;;;;;;;-146.25;100.00;52512.16;2071472;28;20042;-63
2024/03/19 01:41:10;;;;;;;22.85;15.48;;;;;;;-146.25;100.00;52516.22;2072653;28;20948;-63
2024/03/19 01:42:12;;;;;;;24.90;15.57;;;;;;;-146.25;100.00;52485.81;2072046;28;20109;-63
2024/03/19 01:43:14;;;;;;;23.85;15.38;;;;;;;-146.25;100.00;52467.56;2071461;28;20034;-63
2024/03/19 01:44:18;;;;;;;24.08;15.65;;;;;;;-146.25;100.00;52497.97;2072022;28;20038;-63
2024/03/19 01:45:22;;;;;;;22.58;15.55;;;;;;;-146.25;100.00;52481.75;2072238;28;20820;-62
2024/03/19 01:46:28;;;;;;;22.35;15.43;;;;;;;-146.25;100.00;52465.53;2071970;28;20047;-64
2024/03/19 01:47:29;;;;;;;20.98;15.48;;;;;;;-146.25;100.00;52528.38;2072232;28;20074;-64
2024/03/19 01:48:36;;;;;;;24.88;15.60;;;;;;;-146.25;100.00;52483.78;2071685;28;20795;-64
2024/03/19 01:49:37;;;;;;;23.75;15.20;;;;;;;-146.25;100.00;52463.50;2072553;28;20035;-63
2024/03/19 01:50:38;;;;;;;22.13;15.18;;;;;;;-146.25;100.00;52483.78;2071546;28;20064;-62
2024/03/19 01:51:41;;;;;;;25.73;15.77;;;;;;;-146.25;100.00;52495.94;2071696;28;20188;-63
2024/03/19 01:52:47;;;;;;;25.50;15.73;;;;;;;-146.25;100.00;52443.22;2071951;28;20101;-64
2024/03/19 01:53:52;;;;;;;22.55;15.02;;;;;;;-146.25;100.00;52481.75;2072161;28;20050;-64
2024/03/19 01:54:53;;;;;;;24.33;15.43;;;;;;;-146.25;100.00;52489.84;2072114;28;20047;-62
2024/03/19 01:55:55;;;;;;;23.02;14.63;;;;;;;-146.25;100.00;52481.75;2071719;28;20038;-63
2024/03/19 01:56:57;;;;;;;22.15;15.10;;;;;;;-146.25;100.00;52485.81;2071524;28;20039;-63
2024/03/19 01:57:59;;;;;;;25.77;15.85;;;;;;;-146.25;100.00;52473.63;2071192;28;20808;-63
2024/03/19 01:59:00;;;;;;;25.40;15.32;;;;;;;-146.25;100.00;52528.38;2071759;28;20042;-62
2024/03/19 02:00:02;;;;;;;23.40;14.75;;;;;;;-146.25;100.00;52477.69;2071671;28;20049;-63
2024/03/19 02:01:13;;;;;;;22.48;15.43;;;;;;;-146.25;100.00;52483.78;2073030;28;20236;-62
2024/03/19 02:02:37;;;;;;;22.00;14.68;;;;;;;-146.25;100.00;52469.56;2072755;28;20042;-63
2024/03/19 02:03:37;;;;;;;24.77;15.02;;;;;;;-146.25;100.00;52469.56;2074815;28;20935;-64
2024/03/19 02:04:39;;;;;;;20.30;14.60;;;;;;;-146.25;100.00;52453.34;2071212;28;20045;-62
2024/03/19 02:05:40;;;;;;;22.95;15.43;;;;;;;-146.25;100.00;52451.31;2071642;28;20050;-62
2024/03/19 02:06:41;;;;;;;24.63;16.15;;;;;;;-146.25;100.00;52510.13;2071417;28;20051;-64
2024/03/19 02:07:44;;;;;;;21.80;15.40;;;;;;;-146.25;100.00;52502.03;2071572;28;20042;-64
2024/03/19 02:09:02;;;;;;;23.85;15.27;;;;;;;-146.25;100.00;52500.00;2071781;28;20085;-64
2024/03/19 02:10:04;;;;;;;23.30;14.70;;;;;;;-146.25;100.00;52475.66;2073607;28;20121;-64
2024/03/19 02:11:05;;;;;;;24.15;14.63;;;;;;;-146.25;100.00;52504.03;2079992;28;20900;-64
2024/03/19 02:12:08;;;;;;;21.75;14.38;;;;;;;-146.25;100.00;52487.81;2079913;28;20033;-65
2024/03/19 02:13:09;;;;;;;25.50;15.15;;;;;;;-146.25;100.00;52467.56;2063757;28;20035;-64
2024/03/19 02:14:10;;;;;;;20.08;14.13;;;;;;;-146.25;100.00;52495.94;2064044;28;20039;-64
2024/03/19 02:15:11;;;;;;;20.00;15.25;;;;;;;-146.25;100.00;52481.75;2071527;28;20062;-64
2024/03/19 02:16:12;;;;;;;23.63;14.80;;;;;;;-146.25;100.00;52481.75;2071505;28;20485;-64
2024/03/19 02:17:13;;;;;;;21.40;14.73;;;;;;;-146.25;100.00;52510.13;2071445;28;20074;-64
2024/03/19 02:18:13;;;;;;;25.73;15.52;;;;;;;-146.25;100.00;52491.88;2071531;28;20042;-64
2024/03/19 02:19:17;;;;;;;24.15;15.68;;;;;;;-146.25;100.00;52471.59;2079553;28;20943;-64
2024/03/19 02:20:19;;;;;;;21.42;14.82;;;;;;;-146.25;100.00;52477.69;2079288;28;20934;-65
2024/03/19 02:21:20;;;;;;;21.42;14.50;;;;;;;-146.25;100.00;52455.38;2071720;28;20038;-64
2024/03/19 02:22:25;;;;;;;23.52;14.75;;;;;;;-146.25;100.00;52493.91;2071738;28;20047;-64
2024/03/19 02:23:26;;;;;;;22.83;14.68;;;;;;;-146.25;100.00;52475.66;2071834;28;20042;-65
2024/03/19 02:24:27;;;;;;;21.80;14.30;;;;;;;-146.25;100.00;52485.81;2079370;28;20153;-64
2024/03/19 02:25:28;;;;;;;21.80;15.25;;;;;;;-146.25;100.00;52483.78;2079867;28;20090;-64
2024/03/19 02:26:31;;;;;;;23.20;14.57;;;;;;;-146.25;100.00;52522.28;2071429;28;20045;-64
2024/03/19 02:27:32;;;;;;;24.83;15.10;;;;;;;-146.25;100.00;52465.53;2071752;28;20042;-64
2024/03/19 02:28:33;;;;;;;21.90;14.35;;;;;;;-146.25;100.00;52479.72;2079523;28;20049;-64
2024/03/19 02:29:34;;;;;;;20.83;15.10;;;;;;;-146.25;100.00;52485.81;2071451;28;20058;-64
2024/03/19 02:30:35;;;;;;;19.83;13.43;;;;;;;-146.25;100.00;52510.13;2071732;28;20041;-65
2024/03/19 02:31:36;;;;;;;22.00;14.30;;;;;;;-146.25;100.00;52473.63;2071637;28;20042;-64
2024/03/19 02:32:37;;;;;;;20.15;14.60;;;;;;;-146.25;100.00;52475.66;2071339;28;20121;-64
2024/03/19 02:33:38;;;;;;;20.75;14.07;;;;;;;-146.25;100.00;52481.75;2071551;28;20117;-65
2024/03/19 02:34:38;;;;;;;22.55;14.32;;;;;;;-146.25;100.00;52481.75;2071502;28;20406;-64
2024/03/19 02:35:39;;;;;;;21.52;14.25;;;;;;;-146.25;100.00;52481.75;2071533;28;20101;-64
2024/03/19 02:36:40;;;;;;;21.70;14.63;;;;;;;-146.25;100.00;52483.78;2063372;28;20039;-64
2024/03/19 02:37:45;;;;;;;22.50;14.43;;;;;;;-146.25;100.00;52477.69;2064586;28;20413;-64
2024/03/19 02:38:46;;;;;;;22.70;14.27;;;;;;;-146.25;100.00;52483.78;2071971;28;20046;-64
2024/03/19 02:39:47;;;;;;;22.45;14.60;;;;;;;-146.25;100.00;52424.97;2079057;28;20042;-64
2024/03/19 02:40:48;;;;;;;21.80;13.65;;;;;;;-146.25;100.00;52481.75;2071283;28;20517;-64
2024/03/19 02:41:49;;;;;;;22.33;14.35;;;;;;;-146.25;100.00;52508.09;2071284;28;20066;-64
2024/03/19 02:42:50;;;;;;;22.10;14.35;;;;;;;-146.25;100.00;52493.91;2079842;28;20034;-64
2024/03/19 02:43:51;;;;;;;25.67;14.90;;;;;;;-146.25;100.00;52500.00;2079425;28;20412;-64
2024/03/19 02:44:51;;;;;;;21.10;14.93;;;;;;;-146.25;100.00;52435.09;2071512;28;20046;-64
2024/03/19 02:45:54;;;;;;;23.85;14.73;;;;;;;-146.25;100.00;52473.63;2071226;28;20058;-64
2024/03/19 02:46:54;;;;;;;22.38;14.45;;;;;;;-146.25;100.00;52497.97;2072954;28;20082;-64
2024/03/19 02:47:56;;;;;;;22.25;14.55;;;;;;;-146.25;100.00;52483.78;2081531;28;20041;-64
2024/03/19 02:48:57;;;;;;;20.40;13.60;;;;;;;-146.25;100.00;52493.91;2081084;28;20922;-62
2024/03/19 02:49:58;;;;;;;20.50;13.65;;;;;;;-146.25;100.00;52473.63;2080796;28;20034;-63
2024/03/19 02:51:01;;;;;;;21.15;14.43;;;;;;;-146.25;100.00;52493.91;2072819;28;20408;-63
2024/03/19 02:52:03;;;;;;;21.20;14.57;;;;;;;-146.25;100.00;52489.84;2080596;28;20081;-63
2024/03/19 02:53:04;;;;;;;19.10;13.68;;;;;;;-146.25;100.00;52508.09;2073044;28;20808;-63
2024/03/19 02:54:05;;;;;;;21.55;14.30;;;;;;;-146.25;100.00;52473.63;2065536;28;20389;-62
2024/03/19 02:55:07;;;;;;;19.60;13.85;;;;;;;-146.25;100.00;52479.72;2064558;28;20047;-63
2024/03/19 02:56:07;;;;;;;20.25;13.77;;;;;;;-146.25;100.00;52512.16;2072910;28;20148;-63
2024/03/19 02:57:08;;;;;;;21.88;13.60;;;;;;;-146.25;100.00;52475.66;2072167;28;20046;-62
2024/03/19 02:58:09;;;;;;;22.58;13.80;;;;;;;-146.25;100.00;52518.25;2080453;28;20109;-63
2024/03/19 02:59:10;;;;;;;19.95;13.77;;;;;;;-146.25;100.00;52485.81;2081040;28;20046;-63
2024/03/19 03:00:12;;;;;;;21.98;14.85;;;;;;;-146.25;100.00;52485.81;2071561;28;20863;-65
2024/03/19 03:01:13;;;;;;;22.50;14.65;;;;;;;-146.25;100.00;52469.56;2072872;28;20862;-63
2024/03/19 03:02:14;;;;;;;22.25;13.95;;;;;;;-146.25;100.00;52483.78;2072239;28;20046;-65
2024/03/19 03:03:15;;;;;;;20.45;13.68;;;;;;;-146.25;100.00;52491.88;2072893;28;20109;-62
2024/03/19 03:04:15;;;;;;;23.35;14.20;;;;;;;-146.25;100.00;52524.31;2064523;28;20046;-63
2024/03/19 03:05:16;;;;;;;21.42;14.20;;;;;;;-146.25;100.00;52504.03;2064677;28;20039;-63
2024/03/19 03:06:17;;;;;;;23.38;14.63;;;;;;;-146.25;100.00;52475.66;2080437;28;20046;-63
2024/03/19 03:07:18;;;;;;;23.20;14.45;;;;;;;-146.25;100.00;52489.84;2072452;28;20038;-63
2024/03/19 03:08:19;;;;;;;19.30;13.52;;;;;;;-146.25;100.00;52489.84;2064520;28;20038;-63
2024/03/19 03:09:20;;;;;;;20.55;13.65;;;;;;;-146.25;100.00;52491.88;2076341;28;20046;-63
2024/03/19 03:10:22;;;;;;;22.20;14.63;;;;;;;-146.25;100.00;52493.91;2089407;28;20045;-63
2024/03/19 03:11:23;;;;;;;20.60;13.18;;;;;;;-146.25;100.00;52481.75;2088900;28;20060;-63
2024/03/19 03:12:23;;;;;;;21.38;13.70;;;;;;;-146.25;100.00;52477.69;2080721;28;20531;-63
2024/03/19 03:13:24;;;;;;;19.15;14.23;;;;;;;-146.25;100.00;52475.66;2080918;28;20049;-63
2024/03/19 03:14:28;;;;;;;19.70;14.18;;;;;;;-146.25;100.00;52510.13;2072788;28;20360;-63
2024/03/19 03:15:29;;;;;;;21.95;13.88;;;;;;;-146.25;100.00;52471.59;2056721;28;20130;-64
2024/03/19 03:16:32;;;;;;;22.10;13.70;;;;;;;-146.25;100.00;52489.84;2064829;28;20047;-63
2024/03/19 03:17:33;;;;;;;20.30;14.02;;;;;;;-146.25;100.00;52473.63;2072401;28;20034;-63
2024/03/19 03:18:34;;;;;;;20.40;13.35;;;;;;;-146.25;100.00;52485.81;2072559;28;21074;-63
2024/03/19 03:19:35;;;;;;;17.00;12.68;;;;;;;-146.25;100.00;52518.25;2072284;28;20141;-64
2024/03/19 03:20:37;;;;;;;23.10;13.70;;;;;;;-146.25;100.00;52471.59;2072762;28;20424;-65
2024/03/19 03:21:37;;;;;;;21.75;14.25;;;;;;;-146.25;100.00;52485.81;2072310;28;20093;-63
2024/03/19 03:22:38;;;;;;;19.52;13.43;;;;;;;-146.25;100.00;52481.75;2072722;28;20074;-62
2024/03/19 03:23:39;;;;;;;22.88;14.10;;;;;;;-146.25;100.00;52485.81;2072697;28;20046;-62
2024/03/19 03:24:40;;;;;;;23.67;13.88;;;;;;;-146.25;100.00;52445.25;2056267;28;20527;-63
2024/03/19 03:25:41;;;;;;;23.23;14.15;;;;;;;-146.25;100.00;52479.72;2064473;28;20054;-62
2024/03/19 03:26:45;;;;;;;22.42;13.20;;;;;;;-146.25;100.00;52487.81;2072626;28;20508;-63
2024/03/19 03:27:46;;;;;;;24.23;14.23;;;;;;;-146.25;100.00;52491.88;2064755;28;20059;-65
2024/03/19 03:28:47;;;;;;;22.08;13.35;;;;;;;-146.25;100.00;52493.91;2056555;28;20126;-62
2024/03/19 03:29:47;;;;;;;20.45;13.57;;;;;;;-146.25;100.00;52497.97;2064724;28;20082;-63
2024/03/19 03:30:48;;;;;;;21.23;13.50;;;;;;;-146.25;100.00;52487.81;2072761;28;20101;-62
2024/03/19 03:31:50;;;;;;;21.13;13.00;;;;;;;-146.25;100.00;52461.47;2072269;28;20039;-63
2024/03/19 03:32:51;;;;;;;21.25;13.13;;;;;;;-146.25;100.00;52502.03;2072408;28;20049;-64
2024/03/19 03:33:55;;;;;;;19.83;13.77;;;;;;;-146.25;100.00;52481.75;2072132;28;20101;-63
2024/03/19 03:34:56;;;;;;;19.65;13.18;;;;;;;-146.25;100.00;52500.00;2072632;28;20034;-63
2024/03/19 03:35:58;;;;;;;22.23;13.35;;;;;;;-146.25;100.00;52536.50;2072510;28;20112;-62
2024/03/19 03:36:59;;;;;;;21.92;12.98;;;;;;;-146.25;100.00;52512.16;2066392;28;20169;-63
2024/03/19 03:37:59;;;;;;;21.25;13.52;;;;;;;-146.25;100.00;52459.44;2064363;28;20046;-63
2024/03/19 03:39:04;;;;;;;18.65;13.48;;;;;;;-146.25;100.00;52487.81;2064437;28;20078;-63
2024/03/19 03:40:14;;;;;;;19.27;14.38;;;;;;;-146.25;100.00;52473.63;2064898;28;20047;-63
2024/03/19 03:41:17;;;;;;;19.05;13.13;;;;;;;-146.25;100.00;52542.56;2057715;28;20162;-63
2024/03/19 03:42:18;;;;;;;26.67;14.23;;;;;;;-146.25;100.00;52516.22;2056417;28;20111;-63
2024/03/19 03:43:22;;;;;;;20.17;13.35;;;;;;;-146.25;100.00;52506.06;2064423;28;20169;-63
2024/03/19 03:44:23;;;;;;;23.52;13.75;;;;;;;-146.25;100.00;52506.06;2064451;28;20050;-64
2024/03/19 03:45:24;;;;;;;25.33;13.30;;;;;;;-146.25;100.00;52469.56;2064281;28;20053;-63
2024/03/19 03:46:25;;;;;;;22.58;13.40;;;;;;;-146.25;100.00;52489.84;2064455;28;20046;-63
2024/03/19 03:47:25;;;;;;;19.02;13.23;;;;;;;-146.25;100.00;52489.84;2064482;28;20057;-63
2024/03/19 03:48:26;;;;;;;20.95;13.85;;;;;;;-146.25;100.00;52485.81;2064276;28;20551;-63
2024/03/19 03:49:27;;;;;;;21.70;13.93;;;;;;;-146.25;100.00;52524.31;2064336;28;20050;-63
2024/03/19 03:50:28;;;;;;;21.67;14.05;;;;;;;-146.25;100.00;52550.69;2064261;28;20186;-63
2024/03/19 03:51:29;;;;;;;19.60;13.25;;;;;;;-146.25;100.00;52469.56;2064316;28;20517;-62
2024/03/19 03:52:32;;;;;;;20.00;14.07;;;;;;;-146.25;100.00;52461.47;2064171;28;20035;-62
2024/03/19 03:53:33;;;;;;;21.73;13.93;;;;;;;-146.25;100.00;52512.16;2064932;28;20047;-65
2024/03/19 03:54:34;;;;;;;20.55;13.23;;;;;;;-146.25;100.00;52477.69;2064001;28;20050;-63
2024/03/19 03:55:35;;;;;;;22.13;14.05;;;;;;;-146.25;100.00;52465.53;2064330;28;20054;-63
2024/03/19 03:56:36;;;;;;;20.13;13.32;;;;;;;-146.25;100.00;52485.81;2072300;28;20161;-63
2024/03/19 03:57:40;;;;;;;22.10;14.40;;;;;;;-146.25;100.00;52510.13;2071352;28;20859;-63
2024/03/19 03:58:41;;;;;;;21.30;13.15;;;;;;;-146.25;100.00;52514.19;2064400;28;20039;-63
2024/03/19 03:59:42;;;;;;;22.55;13.55;;;;;;;-146.25;100.00;52518.25;2064275;28;20121;-62
2024/03/19 04:00:48;;;;;;;19.20;14.05;;;;;;;-146.25;100.00;52471.59;2064422;28;20058;-63
2024/03/19 04:01:49;;;;;;;22.23;13.30;;;;;;;-146.25;100.00;52506.06;2064820;28;20178;-64
2024/03/19 04:02:51;;;;;;;20.48;13.43;;;;;;;-146.25;100.00;52477.69;2064332;28;20047;-64
2024/03/19 04:03:52;;;;;;;21.13;13.60;;;;;;;-146.25;100.00;52506.06;2064204;28;20041;-64
2024/03/19 04:04:52;;;;;;;18.02;12.73;;;;;;;-146.25;100.00;52475.66;2064272;28;20510;-64
2024/03/19 04:05:53;;;;;;;18.65;13.27;;;;;;;-146.25;100.00;52502.03;2064006;28;20078;-64
2024/03/19 04:06:54;;;;;;;19.75;13.32;;;;;;;-146.25;100.00;52506.06;2063841;28;20050;-64
2024/03/19 04:07:55;;;;;;;24.15;13.73;;;;;;;-146.25;100.00;52479.72;2072484;28;20120;-64
2024/03/19 04:08:59;;;;;;;21.33;14.20;;;;;;;-146.25;100.00;52516.22;2072643;28;20045;-63
2024/03/19 04:10:01;;;;;;;19.52;13.95;;;;;;;-146.25;100.00;52471.59;2072697;28;20054;-64
2024/03/19 04:11:04;;;;;;;19.92;13.75;;;;;;;-146.25;100.00;52544.59;2072307;28;20536;-64
2024/03/19 04:12:06;;;;;;;21.50;13.68;;;;;;;-146.25;100.00;52447.28;2072769;28;20132;-64
2024/03/19 04:13:09;;;;;;;20.48;13.90;;;;;;;-146.25;100.00;52481.75;2072170;28;20958;-64
2024/03/19 04:14:10;;;;;;;22.33;13.63;;;;;;;-146.25;100.00;52491.88;2073208;28;20039;-64
2024/03/19 04:15:12;;;;;;;21.63;14.35;;;;;;;-146.25;100.00;52493.91;2080845;28;20046;-64
2024/03/19 04:16:12;;;;;;;22.75;14.35;;;;;;;-146.25;100.00;52502.03;2080492;28;20042;-64
2024/03/19 04:17:13;;;;;;;23.38;15.35;;;;;;;-146.25;100.00;52522.28;2072141;28;20053;-64
2024/03/19 04:18:14;;;;;;;23.33;14.27;;;;;;;-146.25;100.00;52506.06;2064165;28;20101;-64
2024/03/19 04:19:15;;;;;;;23.27;15.05;;;;;;;-146.25;100.00;52497.97;2072298;28;20077;-64
2024/03/19 04:20:16;;;;;;;22.20;14.48;;;;;;;-146.25;100.00;52491.88;2072379;28;20389;-64
2024/03/19 04:21:17;;;;;;;19.77;14.35;;;;;;;-146.25;100.00;52518.25;2072261;28;20042;-64
2024/03/19 04:22:18;;;;;;;20.65;14.20;;;;;;;-146.25;100.00;52471.59;2072188;28;20493;-64
2024/03/19 04:23:18;;;;;;;22.70;15.32;;;;;;;-146.25;100.00;52493.91;2071983;28;20050;-64
2024/03/19 04:24:19;;;;;;;20.52;14.02;;;;;;;-146.25;100.00;52516.22;2071461;28;20199;-64
2024/03/19 04:25:20;;;;;;;20.02;14.05;;;;;;;-146.25;100.00;52489.84;2080545;28;20401;-65
2024/03/19 04:26:21;;;;;;;22.17;13.73;;;;;;;-146.25;100.00;52514.19;2080407;28;20113;-63
2024/03/19 04:27:22;;;;;;;21.10;14.20;;;;;;;-146.25;100.00;52491.88;2072403;28;20134;-64
2024/03/19 04:28:23;;;;;;;20.95;13.80;;;;;;;-146.25;100.00;52522.28;2072191;28;20078;-64
2024/03/19 04:29:24;;;;;;;24.50;14.73;;;;;;;-146.25;100.00;52518.25;2063983;28;20049;-64
2024/03/19 04:30:25;;;;;;;20.88;13.85;;;;;;;-146.25;100.00;52481.75;2072377;28;20026;-63
2024/03/19 04:31:25;;;;;;;21.60;14.40;;;;;;;-146.25;100.00;52467.56;2072414;28;20045;-64
2024/03/19 04:32:26;;;;;;;21.30;13.98;;;;;;;-146.25;100.00;52489.84;2072209;28;20574;-64
2024/03/19 04:33:27;;;;;;;21.88;14.60;;;;;;;-146.25;100.00;52493.91;2064325;28;20101;-64
2024/03/19 04:34:28;;;;;;;20.20;13.88;;;;;;;-146.25;100.00;52508.09;2063883;28;20042;-64